sensor_id;sensor_type;location;lat;lon;timestamp;temperature;humidity
20487;DHT22;10402;49.012;8.370;2024-02-15T00:01:21;13.40;90.40
20487;DHT22;10402;49.012;8.370;2024-02-15T00:03:46;13.40;90.80
20487;DHT22;10402;49.012;8.370;2024-02-15T00:06:12;13.40;90.40
20487;DHT22;10402;49.012;8.370;2024-02-15T00:08:37;13.40;90.50
20487;DHT22;10402;49.012;8.370;2024-02-15T00:11:03;13.40;90.50
20487;DHT22;10402;49.012;8.370;2024-02-15T00:13:29;13.40;90.50
20487;DHT22;10402;49.012;8.370;2024-02-15T00:15:55;13.40;90.50
20487;DHT22;10402;49.012;8.370;2024-02-15T00:18:21;13.40;90.50
20487;DHT22;10402;49.012;8.370;2024-02-15T00:20:46;13.40;90.50
20487;DHT22;10402;49.012;8.370;2024-02-15T00:23:12;13.40;90.50
20487;DHT22;10402;49.012;8.370;2024-02-15T00:25:37;13.40;90.50
20487;DHT22;10402;49.012;8.370;2024-02-15T00:28:03;13.30;90.50
20487;DHT22;10402;49.012;8.370;2024-02-15T00:30:29;13.30;90.50
20487;DHT22;10402;49.012;8.370;2024-02-15T00:32:54;13.30;90.50
20487;DHT22;10402;49.012;8.370;2024-02-15T00:35:20;13.30;90.60
20487;DHT22;10402;49.012;8.370;2024-02-15T00:37:46;13.30;90.60
20487;DHT22;10402;49.012;8.370;2024-02-15T00:40:12;13.30;90.60
20487;DHT22;10402;49.012;8.370;2024-02-15T00:42:38;13.30;90.60
20487;DHT22;10402;49.012;8.370;2024-02-15T00:45:04;13.30;90.70
20487;DHT22;10402;49.012;8.370;2024-02-15T00:47:30;13.30;90.70
20487;DHT22;10402;49.012;8.370;2024-02-15T00:49:56;13.30;90.70
20487;DHT22;10402;49.012;8.370;2024-02-15T00:52:21;13.20;90.70
20487;DHT22;10402;49.012;8.370;2024-02-15T00:54:47;13.20;90.70
20487;DHT22;10402;49.012;8.370;2024-02-15T00:57:12;13.20;90.70
20487;DHT22;10402;49.012;8.370;2024-02-15T00:59:38;13.20;90.70
20487;DHT22;10402;49.012;8.370;2024-02-15T01:02:03;13.20;90.70
20487;DHT22;10402;49.012;8.370;2024-02-15T01:04:30;13.20;90.70
20487;DHT22;10402;49.012;8.370;2024-02-15T01:06:56;13.20;90.70
20487;DHT22;10402;49.012;8.370;2024-02-15T01:09:22;13.10;90.70
20487;DHT22;10402;49.012;8.370;2024-02-15T01:11:47;13.10;90.70
20487;DHT22;10402;49.012;8.370;2024-02-15T01:14:14;13.10;90.80
20487;DHT22;10402;49.012;8.370;2024-02-15T01:16:43;13.00;90.80
20487;DHT22;10402;49.012;8.370;2024-02-15T01:19:09;13.00;90.80
20487;DHT22;10402;49.012;8.370;2024-02-15T01:21:35;13.00;90.80
20487;DHT22;10402;49.012;8.370;2024-02-15T01:24:00;13.00;90.90
20487;DHT22;10402;49.012;8.370;2024-02-15T01:26:26;12.90;91.00
20487;DHT22;10402;49.012;8.370;2024-02-15T01:28:52;12.90;91.00
20487;DHT22;10402;49.012;8.370;2024-02-15T01:31:18;12.90;91.10
20487;DHT22;10402;49.012;8.370;2024-02-15T01:33:44;12.90;91.10
20487;DHT22;10402;49.012;8.370;2024-02-15T01:36:17;12.90;91.20
20487;DHT22;10402;49.012;8.370;2024-02-15T01:38:43;13.00;91.20
20487;DHT22;10402;49.012;8.370;2024-02-15T01:41:09;12.90;91.20
20487;DHT22;10402;49.012;8.370;2024-02-15T01:43:38;12.90;91.20
20487;DHT22;10402;49.012;8.370;2024-02-15T01:46:09;13.00;91.30
20487;DHT22;10402;49.012;8.370;2024-02-15T01:48:37;13.00;91.30
20487;DHT22;10402;49.012;8.370;2024-02-15T01:51:03;13.00;91.30
20487;DHT22;10402;49.012;8.370;2024-02-15T01:53:29;13.00;91.30
20487;DHT22;10402;49.012;8.370;2024-02-15T01:55:56;13.00;91.30
20487;DHT22;10402;49.012;8.370;2024-02-15T01:58:24;12.90;91.30
20487;DHT22;10402;49.012;8.370;2024-02-15T02:00:50;12.90;91.30
20487;DHT22;10402;49.012;8.370;2024-02-15T02:03:16;13.00;91.40
20487;DHT22;10402;49.012;8.370;2024-02-15T02:05:42;13.00;91.30
20487;DHT22;10402;49.012;8.370;2024-02-15T02:08:08;12.90;91.30
20487;DHT22;10402;49.012;8.370;2024-02-15T02:10:41;13.00;91.40
20487;DHT22;10402;49.012;8.370;2024-02-15T02:13:06;12.90;91.30
20487;DHT22;10402;49.012;8.370;2024-02-15T02:15:32;12.90;91.40
20487;DHT22;10402;49.012;8.370;2024-02-15T02:17:59;12.90;91.60
20487;DHT22;10402;49.012;8.370;2024-02-15T02:20:26;12.90;91.50
20487;DHT22;10402;49.012;8.370;2024-02-15T02:22:54;12.90;91.50
20487;DHT22;10402;49.012;8.370;2024-02-15T02:25:20;12.90;91.50
20487;DHT22;10402;49.012;8.370;2024-02-15T02:27:47;12.90;91.50
20487;DHT22;10402;49.012;8.370;2024-02-15T02:30:14;13.00;91.60
20487;DHT22;10402;49.012;8.370;2024-02-15T02:32:43;12.90;91.50
20487;DHT22;10402;49.012;8.370;2024-02-15T02:35:09;12.90;91.50
20487;DHT22;10402;49.012;8.370;2024-02-15T02:37:38;12.90;91.50
20487;DHT22;10402;49.012;8.370;2024-02-15T02:40:08;12.90;91.50
20487;DHT22;10402;49.012;8.370;2024-02-15T02:42:36;12.90;91.60
20487;DHT22;10402;49.012;8.370;2024-02-15T02:45:11;12.90;91.50
20487;DHT22;10402;49.012;8.370;2024-02-15T02:47:36;12.90;91.50
20487;DHT22;10402;49.012;8.370;2024-02-15T02:50:02;12.90;91.60
20487;DHT22;10402;49.012;8.370;2024-02-15T02:52:28;12.90;91.60
20487;DHT22;10402;49.012;8.370;2024-02-15T02:54:54;12.90;91.50
20487;DHT22;10402;49.012;8.370;2024-02-15T02:57:19;12.90;91.50
20487;DHT22;10402;49.012;8.370;2024-02-15T02:59:45;12.90;91.50
20487;DHT22;10402;49.012;8.370;2024-02-15T03:02:10;12.90;91.50
20487;DHT22;10402;49.012;8.370;2024-02-15T03:04:36;12.90;91.60
20487;DHT22;10402;49.012;8.370;2024-02-15T03:07:05;12.90;91.50
20487;DHT22;10402;49.012;8.370;2024-02-15T03:09:30;12.90;91.50
20487;DHT22;10402;49.012;8.370;2024-02-15T03:11:56;12.90;91.50
20487;DHT22;10402;49.012;8.370;2024-02-15T03:14:26;12.90;91.50
20487;DHT22;10402;49.012;8.370;2024-02-15T03:16:52;12.90;91.50
20487;DHT22;10402;49.012;8.370;2024-02-15T03:19:17;12.90;91.50
20487;DHT22;10402;49.012;8.370;2024-02-15T03:21:43;12.90;91.60
20487;DHT22;10402;49.012;8.370;2024-02-15T03:24:12;12.90;91.60
20487;DHT22;10402;49.012;8.370;2024-02-15T03:26:37;12.90;91.60
20487;DHT22;10402;49.012;8.370;2024-02-15T03:29:04;12.90;91.60
20487;DHT22;10402;49.012;8.370;2024-02-15T03:31:29;12.90;91.50
20487;DHT22;10402;49.012;8.370;2024-02-15T03:33:58;12.90;91.50
20487;DHT22;10402;49.012;8.370;2024-02-15T03:36:24;12.90;91.50
20487;DHT22;10402;49.012;8.370;2024-02-15T03:38:50;12.90;91.60
20487;DHT22;10402;49.012;8.370;2024-02-15T03:41:19;12.90;91.70
20487;DHT22;10402;49.012;8.370;2024-02-15T03:43:45;12.90;91.70
20487;DHT22;10402;49.012;8.370;2024-02-15T03:46:12;12.90;91.80
20487;DHT22;10402;49.012;8.370;2024-02-15T03:48:38;12.90;91.80
20487;DHT22;10402;49.012;8.370;2024-02-15T03:51:04;12.90;91.80
20487;DHT22;10402;49.012;8.370;2024-02-15T03:53:31;12.90;91.80
20487;DHT22;10402;49.012;8.370;2024-02-15T03:55:58;12.90;91.80
20487;DHT22;10402;49.012;8.370;2024-02-15T03:58:25;12.90;91.70
20487;DHT22;10402;49.012;8.370;2024-02-15T04:00:51;12.90;91.70
20487;DHT22;10402;49.012;8.370;2024-02-15T04:03:17;12.90;91.70
20487;DHT22;10402;49.012;8.370;2024-02-15T04:05:42;12.90;91.70
20487;DHT22;10402;49.012;8.370;2024-02-15T04:08:08;12.90;91.70
20487;DHT22;10402;49.012;8.370;2024-02-15T04:10:34;12.80;91.70
20487;DHT22;10402;49.012;8.370;2024-02-15T04:12:59;12.90;91.70
20487;DHT22;10402;49.012;8.370;2024-02-15T04:15:25;12.90;91.70
20487;DHT22;10402;49.012;8.370;2024-02-15T04:17:50;12.90;91.70
20487;DHT22;10402;49.012;8.370;2024-02-15T04:20:21;12.90;91.60
20487;DHT22;10402;49.012;8.370;2024-02-15T04:22:47;12.90;91.70
20487;DHT22;10402;49.012;8.370;2024-02-15T04:25:15;12.80;91.60
20487;DHT22;10402;49.012;8.370;2024-02-15T04:27:44;12.90;91.70
20487;DHT22;10402;49.012;8.370;2024-02-15T04:30:11;12.90;91.70
20487;DHT22;10402;49.012;8.370;2024-02-15T04:32:36;12.80;91.70
20487;DHT22;10402;49.012;8.370;2024-02-15T04:35:02;12.80;91.70
20487;DHT22;10402;49.012;8.370;2024-02-15T04:37:29;12.80;91.70
20487;DHT22;10402;49.012;8.370;2024-02-15T04:40:00;12.80;91.70
20487;DHT22;10402;49.012;8.370;2024-02-15T04:42:33;12.80;91.70
20487;DHT22;10402;49.012;8.370;2024-02-15T04:45:00;12.80;91.80
20487;DHT22;10402;49.012;8.370;2024-02-15T04:47:25;12.80;91.70
20487;DHT22;10402;49.012;8.370;2024-02-15T04:49:51;12.80;91.70
20487;DHT22;10402;49.012;8.370;2024-02-15T04:52:16;12.80;91.70
20487;DHT22;10402;49.012;8.370;2024-02-15T04:54:43;12.80;91.70
20487;DHT22;10402;49.012;8.370;2024-02-15T04:57:09;12.80;91.70
20487;DHT22;10402;49.012;8.370;2024-02-15T04:59:37;12.80;91.70
20487;DHT22;10402;49.012;8.370;2024-02-15T05:02:02;12.80;91.70
20487;DHT22;10402;49.012;8.370;2024-02-15T05:04:28;12.80;91.70
20487;DHT22;10402;49.012;8.370;2024-02-15T05:06:53;12.80;91.70
20487;DHT22;10402;49.012;8.370;2024-02-15T05:09:19;12.80;91.80
20487;DHT22;10402;49.012;8.370;2024-02-15T05:11:44;12.80;91.80
20487;DHT22;10402;49.012;8.370;2024-02-15T05:14:14;12.80;91.80
20487;DHT22;10402;49.012;8.370;2024-02-15T05:16:45;12.80;91.90
20487;DHT22;10402;49.012;8.370;2024-02-15T05:19:16;12.80;91.80
20487;DHT22;10402;49.012;8.370;2024-02-15T05:21:42;12.80;91.80
20487;DHT22;10402;49.012;8.370;2024-02-15T05:24:14;12.70;91.70
20487;DHT22;10402;49.012;8.370;2024-02-15T05:26:41;12.80;91.70
20487;DHT22;10402;49.012;8.370;2024-02-15T05:29:08;12.70;91.60
20487;DHT22;10402;49.012;8.370;2024-02-15T05:31:35;12.80;91.70
20487;DHT22;10402;49.012;8.370;2024-02-15T05:34:05;12.70;91.70
20487;DHT22;10402;49.012;8.370;2024-02-15T05:36:30;12.70;91.70
20487;DHT22;10402;49.012;8.370;2024-02-15T05:38:56;12.70;91.60
20487;DHT22;10402;49.012;8.370;2024-02-15T05:41:22;12.80;91.60
20487;DHT22;10402;49.012;8.370;2024-02-15T05:43:48;12.80;91.60
20487;DHT22;10402;49.012;8.370;2024-02-15T05:46:14;12.80;91.50
20487;DHT22;10402;49.012;8.370;2024-02-15T05:48:40;12.70;91.60
20487;DHT22;10402;49.012;8.370;2024-02-15T05:51:09;12.70;91.50
20487;DHT22;10402;49.012;8.370;2024-02-15T05:53:35;12.80;91.50
20487;DHT22;10402;49.012;8.370;2024-02-15T05:56:05;12.70;91.40
20487;DHT22;10402;49.012;8.370;2024-02-15T05:58:32;12.80;91.50
20487;DHT22;10402;49.012;8.370;2024-02-15T06:00:58;12.70;91.40
20487;DHT22;10402;49.012;8.370;2024-02-15T06:03:30;12.70;91.40
20487;DHT22;10402;49.012;8.370;2024-02-15T06:05:57;12.70;91.40
20487;DHT22;10402;49.012;8.370;2024-02-15T06:08:24;12.70;91.30
20487;DHT22;10402;49.012;8.370;2024-02-15T06:10:51;12.70;91.30
20487;DHT22;10402;49.012;8.370;2024-02-15T06:13:18;12.70;91.30
20487;DHT22;10402;49.012;8.370;2024-02-15T06:15:43;12.70;91.30
20487;DHT22;10402;49.012;8.370;2024-02-15T06:18:09;12.60;91.30
20487;DHT22;10402;49.012;8.370;2024-02-15T06:20:36;12.60;91.30
20487;DHT22;10402;49.012;8.370;2024-02-15T06:23:02;12.70;91.30
20487;DHT22;10402;49.012;8.370;2024-02-15T06:25:33;12.70;91.30
20487;DHT22;10402;49.012;8.370;2024-02-15T06:27:58;12.60;91.20
20487;DHT22;10402;49.012;8.370;2024-02-15T06:30:28;12.60;91.20
20487;DHT22;10402;49.012;8.370;2024-02-15T06:33:12;12.60;91.30
20487;DHT22;10402;49.012;8.370;2024-02-15T06:35:56;12.60;91.20
20487;DHT22;10402;49.012;8.370;2024-02-15T06:38:40;12.60;91.10
20487;DHT22;10402;49.012;8.370;2024-02-15T06:41:24;12.60;91.00
20487;DHT22;10402;49.012;8.370;2024-02-15T06:43:50;12.60;91.00
20487;DHT22;10402;49.012;8.370;2024-02-15T06:46:16;12.60;91.00
20487;DHT22;10402;49.012;8.370;2024-02-15T06:48:43;12.60;91.00
20487;DHT22;10402;49.012;8.370;2024-02-15T06:51:12;12.50;91.00
20487;DHT22;10402;49.012;8.370;2024-02-15T06:53:39;12.60;91.00
20487;DHT22;10402;49.012;8.370;2024-02-15T06:56:05;12.60;90.80
20487;DHT22;10402;49.012;8.370;2024-02-15T06:58:31;12.60;90.80
20487;DHT22;10402;49.012;8.370;2024-02-15T07:00:56;12.50;90.70
20487;DHT22;10402;49.012;8.370;2024-02-15T07:03:22;12.50;90.70
20487;DHT22;10402;49.012;8.370;2024-02-15T07:05:49;12.50;90.70
20487;DHT22;10402;49.012;8.370;2024-02-15T07:08:15;12.50;90.60
20487;DHT22;10402;49.012;8.370;2024-02-15T07:10:40;12.40;90.60
20487;DHT22;10402;49.012;8.370;2024-02-15T07:13:06;12.50;90.60
20487;DHT22;10402;49.012;8.370;2024-02-15T07:15:33;12.40;90.50
20487;DHT22;10402;49.012;8.370;2024-02-15T07:18:06;12.40;90.50
20487;DHT22;10402;49.012;8.370;2024-02-15T07:20:32;12.40;90.50
20487;DHT22;10402;49.012;8.370;2024-02-15T07:22:58;12.40;90.50
20487;DHT22;10402;49.012;8.370;2024-02-15T07:25:24;12.50;90.50
20487;DHT22;10402;49.012;8.370;2024-02-15T07:27:49;12.50;90.50
20487;DHT22;10402;49.012;8.370;2024-02-15T07:30:15;12.50;90.50
20487;DHT22;10402;49.012;8.370;2024-02-15T07:32:41;12.50;90.50
20487;DHT22;10402;49.012;8.370;2024-02-15T07:35:06;12.50;90.50
20487;DHT22;10402;49.012;8.370;2024-02-15T07:37:33;12.50;90.50
20487;DHT22;10402;49.012;8.370;2024-02-15T07:39:59;12.50;90.50
20487;DHT22;10402;49.012;8.370;2024-02-15T07:42:25;12.50;90.50
20487;DHT22;10402;49.012;8.370;2024-02-15T07:44:51;12.50;90.40
20487;DHT22;10402;49.012;8.370;2024-02-15T07:47:18;12.60;90.40
20487;DHT22;10402;49.012;8.370;2024-02-15T07:49:46;12.60;90.30
20487;DHT22;10402;49.012;8.370;2024-02-15T07:52:12;12.60;90.30
20487;DHT22;10402;49.012;8.370;2024-02-15T07:54:39;12.60;90.30
20487;DHT22;10402;49.012;8.370;2024-02-15T07:57:04;12.60;90.30
20487;DHT22;10402;49.012;8.370;2024-02-15T07:59:30;12.60;90.20
20487;DHT22;10402;49.012;8.370;2024-02-15T08:01:56;12.60;90.10
20487;DHT22;10402;49.012;8.370;2024-02-15T08:04:21;12.60;90.00
20487;DHT22;10402;49.012;8.370;2024-02-15T08:06:48;12.60;89.90
20487;DHT22;10402;49.012;8.370;2024-02-15T08:09:15;12.60;89.90
20487;DHT22;10402;49.012;8.370;2024-02-15T08:11:43;12.70;89.90
20487;DHT22;10402;49.012;8.370;2024-02-15T08:14:09;12.60;89.70
20487;DHT22;10402;49.012;8.370;2024-02-15T08:16:36;12.60;89.20
20487;DHT22;10402;49.012;8.370;2024-02-15T08:19:03;12.60;89.40
20487;DHT22;10402;49.012;8.370;2024-02-15T08:21:31;12.60;89.50
20487;DHT22;10402;49.012;8.370;2024-02-15T08:24:04;12.60;89.70
20487;DHT22;10402;49.012;8.370;2024-02-15T08:26:36;12.70;89.70
20487;DHT22;10402;49.012;8.370;2024-02-15T08:29:03;12.70;89.60
20487;DHT22;10402;49.012;8.370;2024-02-15T08:31:29;12.70;89.40
20487;DHT22;10402;49.012;8.370;2024-02-15T08:33:58;12.80;89.20
20487;DHT22;10402;49.012;8.370;2024-02-15T08:36:24;12.80;89.10
20487;DHT22;10402;49.012;8.370;2024-02-15T08:38:50;12.80;88.90
20487;DHT22;10402;49.012;8.370;2024-02-15T08:41:16;12.80;88.80
20487;DHT22;10402;49.012;8.370;2024-02-15T08:43:44;12.80;89.00
20487;DHT22;10402;49.012;8.370;2024-02-15T08:46:09;12.80;89.10
20487;DHT22;10402;49.012;8.370;2024-02-15T08:48:35;12.80;89.20
20487;DHT22;10402;49.012;8.370;2024-02-15T08:51:02;12.80;89.20
20487;DHT22;10402;49.012;8.370;2024-02-15T08:53:27;12.80;89.10
20487;DHT22;10402;49.012;8.370;2024-02-15T08:55:53;12.80;89.20
20487;DHT22;10402;49.012;8.370;2024-02-15T08:58:19;12.80;89.10
20487;DHT22;10402;49.012;8.370;2024-02-15T09:00:46;12.90;89.00
20487;DHT22;10402;49.012;8.370;2024-02-15T09:03:12;12.90;88.60
20487;DHT22;10402;49.012;8.370;2024-02-15T09:05:39;12.90;88.70
20487;DHT22;10402;49.012;8.370;2024-02-15T09:08:06;12.90;88.60
20487;DHT22;10402;49.012;8.370;2024-02-15T09:10:31;12.90;88.60
20487;DHT22;10402;49.012;8.370;2024-02-15T09:12:57;12.90;88.70
20487;DHT22;10402;49.012;8.370;2024-02-15T09:15:22;13.00;88.80
20487;DHT22;10402;49.012;8.370;2024-02-15T09:17:48;13.00;88.40
20487;DHT22;10402;49.012;8.370;2024-02-15T09:20:16;13.00;88.30
20487;DHT22;10402;49.012;8.370;2024-02-15T09:22:53;13.00;88.20
20487;DHT22;10402;49.012;8.370;2024-02-15T09:25:22;13.00;88.10
20487;DHT22;10402;49.012;8.370;2024-02-15T09:27:49;13.10;88.10
20487;DHT22;10402;49.012;8.370;2024-02-15T09:30:15;13.10;87.50
20487;DHT22;10402;49.012;8.370;2024-02-15T09:32:41;13.10;87.50
20487;DHT22;10402;49.012;8.370;2024-02-15T09:35:08;13.10;87.70
20487;DHT22;10402;49.012;8.370;2024-02-15T09:37:38;13.10;87.50
20487;DHT22;10402;49.012;8.370;2024-02-15T09:40:13;13.10;87.50
20487;DHT22;10402;49.012;8.370;2024-02-15T09:42:40;13.20;87.40
20487;DHT22;10402;49.012;8.370;2024-02-15T09:45:06;13.30;87.10
20487;DHT22;10402;49.012;8.370;2024-02-15T09:47:36;13.30;87.00
20487;DHT22;10402;49.012;8.370;2024-02-15T09:50:05;13.40;86.60
20487;DHT22;10402;49.012;8.370;2024-02-15T09:52:32;13.40;86.30
20487;DHT22;10402;49.012;8.370;2024-02-15T09:55:02;13.40;86.30
20487;DHT22;10402;49.012;8.370;2024-02-15T09:57:29;13.40;86.00
20487;DHT22;10402;49.012;8.370;2024-02-15T09:59:57;13.50;85.80
20487;DHT22;10402;49.012;8.370;2024-02-15T10:02:24;13.50;85.80
20487;DHT22;10402;49.012;8.370;2024-02-15T10:04:50;13.60;85.90
20487;DHT22;10402;49.012;8.370;2024-02-15T10:07:16;13.60;85.90
20487;DHT22;10402;49.012;8.370;2024-02-15T10:09:43;13.70;85.50
20487;DHT22;10402;49.012;8.370;2024-02-15T10:12:09;13.70;85.40
20487;DHT22;10402;49.012;8.370;2024-02-15T10:14:35;13.80;85.40
20487;DHT22;10402;49.012;8.370;2024-02-15T10:17:08;13.90;85.10
20487;DHT22;10402;49.012;8.370;2024-02-15T10:19:39;13.90;84.90
20487;DHT22;10402;49.012;8.370;2024-02-15T10:22:09;14.00;84.90
20487;DHT22;10402;49.012;8.370;2024-02-15T10:24:35;14.10;84.50
20487;DHT22;10402;49.012;8.370;2024-02-15T10:27:03;14.10;83.80
20487;DHT22;10402;49.012;8.370;2024-02-15T10:29:36;14.20;83.60
20487;DHT22;10402;49.012;8.370;2024-02-15T10:32:03;14.20;83.60
20487;DHT22;10402;49.012;8.370;2024-02-15T10:34:29;14.30;83.60
20487;DHT22;10402;49.012;8.370;2024-02-15T10:37:10;14.30;82.70
20487;DHT22;10402;49.012;8.370;2024-02-15T10:39:36;14.40;82.90
20487;DHT22;10402;49.012;8.370;2024-02-15T10:42:03;14.40;82.50
20487;DHT22;10402;49.012;8.370;2024-02-15T10:44:31;14.40;82.10
20487;DHT22;10402;49.012;8.370;2024-02-15T10:46:59;14.50;82.20
20487;DHT22;10402;49.012;8.370;2024-02-15T10:49:26;14.60;83.00
20487;DHT22;10402;49.012;8.370;2024-02-15T10:51:57;14.60;81.80
20487;DHT22;10402;49.012;8.370;2024-02-15T10:54:46;14.70;81.50
20487;DHT22;10402;49.012;8.370;2024-02-15T10:57:13;14.70;81.20
20487;DHT22;10402;49.012;8.370;2024-02-15T10:59:51;14.80;80.80
20487;DHT22;10402;49.012;8.370;2024-02-15T11:02:30;14.80;80.90
20487;DHT22;10402;49.012;8.370;2024-02-15T11:05:01;14.80;80.30
20487;DHT22;10402;49.012;8.370;2024-02-15T11:07:29;14.90;80.30
20487;DHT22;10402;49.012;8.370;2024-02-15T11:09:56;14.90;80.00
20487;DHT22;10402;49.012;8.370;2024-02-15T11:12:26;14.90;80.00
20487;DHT22;10402;49.012;8.370;2024-02-15T11:14:52;15.00;80.00
20487;DHT22;10402;49.012;8.370;2024-02-15T11:20:03;15.10;79.30
20487;DHT22;10402;49.012;8.370;2024-02-15T11:22:34;15.10;79.00
20487;DHT22;10402;49.012;8.370;2024-02-15T11:25:06;15.20;78.90
20487;DHT22;10402;49.012;8.370;2024-02-15T11:27:38;15.10;78.70
20487;DHT22;10402;49.012;8.370;2024-02-15T11:30:06;15.20;78.80
20487;DHT22;10402;49.012;8.370;2024-02-15T11:32:44;15.30;78.30
20487;DHT22;10402;49.012;8.370;2024-02-15T11:35:13;15.30;77.70
20487;DHT22;10402;49.012;8.370;2024-02-15T11:37:49;15.30;76.90
20487;DHT22;10402;49.012;8.370;2024-02-15T11:40:28;15.30;76.50
20487;DHT22;10402;49.012;8.370;2024-02-15T11:43:00;15.30;76.50
20487;DHT22;10402;49.012;8.370;2024-02-15T11:45:27;15.40;76.80
20487;DHT22;10402;49.012;8.370;2024-02-15T11:47:58;15.40;76.00
20487;DHT22;10402;49.012;8.370;2024-02-15T11:50:27;15.40;76.00
20487;DHT22;10402;49.012;8.370;2024-02-15T11:53:02;15.50;75.30
20487;DHT22;10402;49.012;8.370;2024-02-15T11:55:35;15.50;75.40
20487;DHT22;10402;49.012;8.370;2024-02-15T11:58:04;15.50;75.20
20487;DHT22;10402;49.012;8.370;2024-02-15T12:00:36;15.50;75.20
20487;DHT22;10402;49.012;8.370;2024-02-15T12:03:21;15.50;75.10
20487;DHT22;10402;49.012;8.370;2024-02-15T12:06:06;15.70;74.90
20487;DHT22;10402;49.012;8.370;2024-02-15T12:08:51;15.60;73.90
20487;DHT22;10402;49.012;8.370;2024-02-15T12:11:36;15.60;73.60
20487;DHT22;10402;49.012;8.370;2024-02-15T12:14:20;15.60;73.80
20487;DHT22;10402;49.012;8.370;2024-02-15T12:17:11;15.60;73.90
20487;DHT22;10402;49.012;8.370;2024-02-15T12:19:57;15.70;74.10
20487;DHT22;10402;49.012;8.370;2024-02-15T12:22:26;15.80;74.00
20487;DHT22;10402;49.012;8.370;2024-02-15T12:24:57;15.80;73.60
20487;DHT22;10402;49.012;8.370;2024-02-15T12:27:23;15.90;73.70
20487;DHT22;10402;49.012;8.370;2024-02-15T12:29:56;15.90;73.50
20487;DHT22;10402;49.012;8.370;2024-02-15T12:32:24;15.90;73.30
20487;DHT22;10402;49.012;8.370;2024-02-15T12:34:50;16.00;73.30
20487;DHT22;10402;49.012;8.370;2024-02-15T12:37:20;16.00;72.70
20487;DHT22;10402;49.012;8.370;2024-02-15T12:39:49;16.00;73.00
20487;DHT22;10402;49.012;8.370;2024-02-15T12:42:16;16.00;72.50
20487;DHT22;10402;49.012;8.370;2024-02-15T12:44:46;16.00;72.40
20487;DHT22;10402;49.012;8.370;2024-02-15T12:47:22;16.10;72.50
20487;DHT22;10402;49.012;8.370;2024-02-15T12:49:48;16.10;72.30
20487;DHT22;10402;49.012;8.370;2024-02-15T12:52:35;16.10;72.30
20487;DHT22;10402;49.012;8.370;2024-02-15T12:55:09;16.10;72.40
20487;DHT22;10402;49.012;8.370;2024-02-15T12:57:35;16.10;72.30
20487;DHT22;10402;49.012;8.370;2024-02-15T13:00:01;16.20;72.50
20487;DHT22;10402;49.012;8.370;2024-02-15T13:02:39;16.20;72.40
20487;DHT22;10402;49.012;8.370;2024-02-15T13:05:05;16.30;72.60
20487;DHT22;10402;49.012;8.370;2024-02-15T13:07:34;16.30;72.50
20487;DHT22;10402;49.012;8.370;2024-02-15T13:10:00;16.30;72.10
20487;DHT22;10402;49.012;8.370;2024-02-15T13:12:26;16.30;71.70
20487;DHT22;10402;49.012;8.370;2024-02-15T13:14:51;16.30;71.60
20487;DHT22;10402;49.012;8.370;2024-02-15T13:17:17;16.40;71.60
20487;DHT22;10402;49.012;8.370;2024-02-15T13:19:46;16.30;71.50
20487;DHT22;10402;49.012;8.370;2024-02-15T13:22:17;16.30;71.60
20487;DHT22;10402;49.012;8.370;2024-02-15T13:24:44;16.40;71.70
20487;DHT22;10402;49.012;8.370;2024-02-15T13:27:09;16.40;71.70
20487;DHT22;10402;49.012;8.370;2024-02-15T13:29:41;16.40;71.10
20487;DHT22;10402;49.012;8.370;2024-02-15T13:32:06;16.40;71.10
20487;DHT22;10402;49.012;8.370;2024-02-15T13:34:32;16.40;71.20
20487;DHT22;10402;49.012;8.370;2024-02-15T13:37:01;16.50;71.00
20487;DHT22;10402;49.012;8.370;2024-02-15T13:39:29;16.40;70.90
20487;DHT22;10402;49.012;8.370;2024-02-15T13:41:59;16.40;70.80
20487;DHT22;10402;49.012;8.370;2024-02-15T13:44:25;16.50;71.00
20487;DHT22;10402;49.012;8.370;2024-02-15T13:46:51;16.50;71.20
20487;DHT22;10402;49.012;8.370;2024-02-15T13:49:16;16.60;71.30
20487;DHT22;10402;49.012;8.370;2024-02-15T13:51:42;16.60;71.30
20487;DHT22;10402;49.012;8.370;2024-02-15T13:54:08;16.70;71.30
20487;DHT22;10402;49.012;8.370;2024-02-15T13:56:34;16.70;71.20
20487;DHT22;10402;49.012;8.370;2024-02-15T13:58:59;16.70;70.80
20487;DHT22;10402;49.012;8.370;2024-02-15T14:01:25;16.70;70.70
20487;DHT22;10402;49.012;8.370;2024-02-15T14:03:51;16.70;70.30
20487;DHT22;10402;49.012;8.370;2024-02-15T14:06:20;16.70;70.40
20487;DHT22;10402;49.012;8.370;2024-02-15T14:08:45;16.70;70.30
20487;DHT22;10402;49.012;8.370;2024-02-15T14:11:12;16.70;69.90
20487;DHT22;10402;49.012;8.370;2024-02-15T14:13:37;16.70;70.00
20487;DHT22;10402;49.012;8.370;2024-02-15T14:16:05;16.70;70.00
20487;DHT22;10402;49.012;8.370;2024-02-15T14:18:31;16.70;69.10
20487;DHT22;10402;49.012;8.370;2024-02-15T14:20:56;16.70;69.10
20487;DHT22;10402;49.012;8.370;2024-02-15T14:23:22;16.70;69.40
20487;DHT22;10402;49.012;8.370;2024-02-15T14:25:47;16.80;69.60
20487;DHT22;10402;49.012;8.370;2024-02-15T14:28:15;16.80;69.60
20487;DHT22;10402;49.012;8.370;2024-02-15T14:30:40;16.80;69.70
20487;DHT22;10402;49.012;8.370;2024-02-15T14:33:25;16.80;69.70
20487;DHT22;10402;49.012;8.370;2024-02-15T14:35:51;16.80;69.80
20487;DHT22;10402;49.012;8.370;2024-02-15T14:38:19;16.80;69.20
20487;DHT22;10402;49.012;8.370;2024-02-15T14:40:47;16.80;69.20
20487;DHT22;10402;49.012;8.370;2024-02-15T14:43:19;16.90;69.30
20487;DHT22;10402;49.012;8.370;2024-02-15T14:45:46;16.90;69.30
20487;DHT22;10402;49.012;8.370;2024-02-15T14:48:13;17.00;69.30
20487;DHT22;10402;49.012;8.370;2024-02-15T14:50:39;17.00;69.10
20487;DHT22;10402;49.012;8.370;2024-02-15T14:53:05;17.00;69.10
20487;DHT22;10402;49.012;8.370;2024-02-15T14:55:33;17.00;68.90
20487;DHT22;10402;49.012;8.370;2024-02-15T14:57:59;17.00;68.70
20487;DHT22;10402;49.012;8.370;2024-02-15T15:00:24;17.00;68.60
20487;DHT22;10402;49.012;8.370;2024-02-15T15:02:52;17.00;68.50
20487;DHT22;10402;49.012;8.370;2024-02-15T15:05:18;17.00;67.80
20487;DHT22;10402;49.012;8.370;2024-02-15T15:08:02;17.00;68.00
20487;DHT22;10402;49.012;8.370;2024-02-15T15:10:47;17.00;68.00
20487;DHT22;10402;49.012;8.370;2024-02-15T15:13:32;17.00;68.00
20487;DHT22;10402;49.012;8.370;2024-02-15T15:15:59;17.00;67.70
20487;DHT22;10402;49.012;8.370;2024-02-15T15:18:24;17.00;67.20
20487;DHT22;10402;49.012;8.370;2024-02-15T15:20:50;17.00;66.70
20487;DHT22;10402;49.012;8.370;2024-02-15T15:23:16;16.90;66.50
20487;DHT22;10402;49.012;8.370;2024-02-15T15:25:42;16.90;66.80
20487;DHT22;10402;49.012;8.370;2024-02-15T15:28:08;16.90;66.80
20487;DHT22;10402;49.012;8.370;2024-02-15T15:30:33;16.90;66.90
20487;DHT22;10402;49.012;8.370;2024-02-15T15:33:00;16.90;66.50
20487;DHT22;10402;49.012;8.370;2024-02-15T15:35:28;16.80;66.60
20487;DHT22;10402;49.012;8.370;2024-02-15T15:37:56;16.80;66.80